ORF weather

Norfolk International Airport
Norfolk, Virginia, United States

Public forecast

Using degrees Fahrenheit for public forecast. Weather courtesy of forecast.io.

Current aviation weather report (METAR) for Norfolk International Airport

Retrieved 2020/04/03 07:51 UTC (35 minutes ago):

KORF 030751Z 31008KT 10SM CLR 12/M02 A2981 RMK AO2 SLP092 T01221017

Aviation forecast (TAF) for Norfolk International Airport

Retrieved 2020/04/03 06:24 UTC (2 hours ago):

TAF KORF 030520Z 0306/0406 32007KT P6SM SKC FM031400 32014G25KT P6SM SKC FM031800 33017G27KT P6SM SCT060 FM040000 35011G17KT P6SM BKN060